sensor_id;sensor_type;location;lat;lon;timestamp;pressure;altitude;pressure_sealevel;temperature;humidity
9740;BME280;4909;42.680;26.324;2022-12-07T00:00:14;98711.59;;;10.09;100.00
9740;BME280;4909;42.680;26.324;2022-12-07T00:02:41;98758.97;;;10.40;100.00
9740;BME280;4909;42.680;26.324;2022-12-07T00:05:08;98754.34;;;10.01;100.00
9740;BME280;4909;42.680;26.324;2022-12-07T00:07:34;98748.97;;;10.03;100.00
9740;BME280;4909;42.680;26.324;2022-12-07T00:10:03;98746.88;;;10.11;100.00
9740;BME280;4909;42.680;26.324;2022-12-07T00:12:30;98762.94;;;10.30;100.00
9740;BME280;4909;42.680;26.324;2022-12-07T00:14:57;98758.78;;;10.23;100.00
9740;BME280;4909;42.680;26.324;2022-12-07T00:17:24;98758.78;;;10.23;100.00
9740;BME280;4909;42.680;26.324;2022-12-07T00:19:51;98749.28;;;9.95;100.00
9740;BME280;4909;42.680;26.324;2022-12-07T00:22:17;98751.47;;;9.84;100.00
9740;BME280;4909;42.680;26.324;2022-12-07T00:24:44;98737.09;;;9.46;100.00
9740;BME280;4909;42.680;26.324;2022-12-07T00:27:12;98757.19;;;9.74;100.00
9740;BME280;4909;42.680;26.324;2022-12-07T00:29:39;98759.34;;;9.87;100.00
9740;BME280;4909;42.680;26.324;2022-12-07T00:32:06;98758.97;;;9.96;100.00
9740;BME280;4909;42.680;26.324;2022-12-07T00:34:33;98746.91;;;9.88;100.00
9740;BME280;4909;42.680;26.324;2022-12-07T00:36:59;98734.44;;;9.91;100.00
9740;BME280;4909;42.680;26.324;2022-12-07T00:39:26;98736.06;;;9.94;100.00
9740;BME280;4909;42.680;26.324;2022-12-07T00:41:54;98750.41;;;10.12;100.00
9740;BME280;4909;42.680;26.324;2022-12-07T00:44:22;98723.44;;;10.00;100.00
9740;BME280;4909;42.680;26.324;2022-12-07T00:46:49;98758.84;;;9.99;100.00
9740;BME280;4909;42.680;26.324;2022-12-07T00:49:16;98754.06;;;10.08;100.00
9740;BME280;4909;42.680;26.324;2022-12-07T00:51:43;98726.06;;;9.79;100.00
9740;BME280;4909;42.680;26.324;2022-12-07T00:54:09;98752.03;;;10.14;100.00
9740;BME280;4909;42.680;26.324;2022-12-07T00:56:36;98751.41;;;10.08;100.00
9740;BME280;4909;42.680;26.324;2022-12-07T00:59:03;98758.66;;;10.04;100.00
9740;BME280;4909;42.680;26.324;2022-12-07T01:01:34;98754.25;;;10.03;100.00
9740;BME280;4909;42.680;26.324;2022-12-07T01:04:02;98750.56;;;10.07;100.00
9740;BME280;4909;42.680;26.324;2022-12-07T01:06:29;98737.72;;;10.20;100.00
9740;BME280;4909;42.680;26.324;2022-12-07T01:08:56;98738.00;;;10.34;100.00
9740;BME280;4909;42.680;26.324;2022-12-07T01:11:25;98731.44;;;10.42;100.00
9740;BME280;4909;42.680;26.324;2022-12-07T01:13:53;98724.28;;;10.44;100.00
9740;BME280;4909;42.680;26.324;2022-12-07T01:16:22;98727.59;;;10.50;100.00
9740;BME280;4909;42.680;26.324;2022-12-07T01:18:52;98721.69;;;10.43;100.00
9740;BME280;4909;42.680;26.324;2022-12-07T01:21:21;98714.19;;;10.32;100.00
9740;BME280;4909;42.680;26.324;2022-12-07T01:23:49;98709.19;;;10.25;100.00
9740;BME280;4909;42.680;26.324;2022-12-07T01:26:17;98706.66;;;10.22;100.00
9740;BME280;4909;42.680;26.324;2022-12-07T01:28:45;98711.53;;;10.32;100.00
9740;BME280;4909;42.680;26.324;2022-12-07T01:31:13;98711.28;;;10.38;100.00
9740;BME280;4909;42.680;26.324;2022-12-07T01:33:42;98703.34;;;10.17;100.00
9740;BME280;4909;42.680;26.324;2022-12-07T01:36:15;98699.84;;;10.16;100.00
9740;BME280;4909;42.680;26.324;2022-12-07T01:38:43;98683.00;;;9.95;100.00
9740;BME280;4909;42.680;26.324;2022-12-07T01:41:10;98688.34;;;9.94;100.00
9740;BME280;4909;42.680;26.324;2022-12-07T01:44:09;98690.22;;;9.92;100.00
9740;BME280;4909;42.680;26.324;2022-12-07T01:46:37;98683.44;;;9.85;100.00
9740;BME280;4909;42.680;26.324;2022-12-07T01:49:06;98680.91;;;9.82;100.00
9740;BME280;4909;42.680;26.324;2022-12-07T01:51:37;98685.59;;;9.75;100.00
9740;BME280;4909;42.680;26.324;2022-12-07T01:54:05;98680.63;;;9.68;100.00
9740;BME280;4909;42.680;26.324;2022-12-07T01:56:32;98678.56;;;9.74;100.00
9740;BME280;4909;42.680;26.324;2022-12-07T01:59:00;98657.91;;;9.60;100.00
9740;BME280;4909;42.680;26.324;2022-12-07T02:01:27;98676.09;;;9.70;100.00
9740;BME280;4909;42.680;26.324;2022-12-07T02:03:54;98670.25;;;9.62;100.00
9740;BME280;4909;42.680;26.324;2022-12-07T02:06:24;98672.28;;;9.55;100.00
9740;BME280;4909;42.680;26.324;2022-12-07T02:08:53;98671.41;;;9.54;100.00
9740;BME280;4909;42.680;26.324;2022-12-07T02:11:20;98672.91;;;9.62;100.00
9740;BME280;4909;42.680;26.324;2022-12-07T02:13:48;98663.72;;;9.48;100.00
9740;BME280;4909;42.680;26.324;2022-12-07T02:16:24;98655.00;;;9.45;100.00
9740;BME280;4909;42.680;26.324;2022-12-07T02:19:06;98668.81;;;9.31;100.00
9740;BME280;4909;42.680;26.324;2022-12-07T02:21:44;98672.88;;;9.40;100.00
9740;BME280;4909;42.680;26.324;2022-12-07T02:24:34;98658.03;;;9.36;100.00
9740;BME280;4909;42.680;26.324;2022-12-07T02:27:19;98669.22;;;9.44;100.00
9740;BME280;4909;42.680;26.324;2022-12-07T02:29:58;98667.69;;;9.58;100.00
9740;BME280;4909;42.680;26.324;2022-12-07T02:32:33;98670.81;;;9.48;100.00
9740;BME280;4909;42.680;26.324;2022-12-07T02:35:06;98667.59;;;9.62;100.00
9740;BME280;4909;42.680;26.324;2022-12-07T02:37:37;98666.06;;;9.56;100.00
9740;BME280;4909;42.680;26.324;2022-12-07T02:40:10;98668.06;;;9.49;100.00
9740;BME280;4909;42.680;26.324;2022-12-07T02:42:45;98664.06;;;9.39;100.00
9740;BME280;4909;42.680;26.324;2022-12-07T02:45:18;98661.16;;;9.24;100.00
9740;BME280;4909;42.680;26.324;2022-12-07T02:47:48;98662.13;;;9.21;100.00
9740;BME280;4909;42.680;26.324;2022-12-07T02:50:18;98649.34;;;9.32;100.00
9740;BME280;4909;42.680;26.324;2022-12-07T02:52:45;98646.69;;;9.54;100.00
9740;BME280;4909;42.680;26.324;2022-12-07T02:55:13;98642.94;;;9.59;100.00
9740;BME280;4909;42.680;26.324;2022-12-07T02:57:51;98634.22;;;9.57;100.00
9740;BME280;4909;42.680;26.324;2022-12-07T03:00:22;98647.00;;;9.46;100.00
9740;BME280;4909;42.680;26.324;2022-12-07T03:02:55;98651.94;;;9.55;100.00
9740;BME280;4909;42.680;26.324;2022-12-07T03:08:22;98654.47;;;9.37;100.00
9740;BME280;4909;42.680;26.324;2022-12-07T03:10:56;98633.22;;;9.38;100.00
9740;BME280;4909;42.680;26.324;2022-12-07T03:13:28;98648.38;;;9.56;100.00
9740;BME280;4909;42.680;26.324;2022-12-07T03:16:04;98649.25;;;9.57;100.00
9740;BME280;4909;42.680;26.324;2022-12-07T03:18:38;98649.16;;;9.58;100.00
9740;BME280;4909;42.680;26.324;2022-12-07T03:21:09;98657.16;;;9.79;100.00
9740;BME280;4909;42.680;26.324;2022-12-07T03:23:39;98651.69;;;9.83;100.00
9740;BME280;4909;42.680;26.324;2022-12-07T03:26:09;98654.59;;;9.77;100.00
9740;BME280;4909;42.680;26.324;2022-12-07T03:28:41;98652.69;;;9.81;100.00
9740;BME280;4909;42.680;26.324;2022-12-07T03:31:13;98650.09;;;9.79;100.00
9740;BME280;4909;42.680;26.324;2022-12-07T03:33:47;98648.28;;;9.80;100.00
9740;BME280;4909;42.680;26.324;2022-12-07T03:36:20;98646.50;;;9.80;100.00
9740;BME280;4909;42.680;26.324;2022-12-07T03:38:50;98649.16;;;9.80;100.00
9740;BME280;4909;42.680;26.324;2022-12-07T03:41:22;98656.19;;;9.81;100.00
9740;BME280;4909;42.680;26.324;2022-12-07T03:43:51;98649.31;;;9.77;100.00
9740;BME280;4909;42.680;26.324;2022-12-07T03:46:27;98653.16;;;9.90;100.00
9740;BME280;4909;42.680;26.324;2022-12-07T03:49:00;98631.53;;;9.79;100.00
9740;BME280;4909;42.680;26.324;2022-12-07T03:51:36;98650.88;;;9.81;100.00
9740;BME280;4909;42.680;26.324;2022-12-07T03:54:10;98650.31;;;9.95;100.00
9740;BME280;4909;42.680;26.324;2022-12-07T03:56:39;98648.78;;;9.89;100.00
9740;BME280;4909;42.680;26.324;2022-12-07T03:59:07;98650.94;;;10.01;100.00
9740;BME280;4909;42.680;26.324;2022-12-07T04:01:35;98650.25;;;9.96;100.00
9740;BME280;4909;42.680;26.324;2022-12-07T04:04:02;98641.56;;;9.93;100.00
9740;BME280;4909;42.680;26.324;2022-12-07T04:06:29;98642.91;;;10.03;100.00
9740;BME280;4909;42.680;26.324;2022-12-07T04:08:56;98645.50;;;10.04;100.00
9740;BME280;4909;42.680;26.324;2022-12-07T04:11:23;98641.06;;;10.05;100.00
9740;BME280;4909;42.680;26.324;2022-12-07T04:13:49;98635.88;;;10.02;100.00
9740;BME280;4909;42.680;26.324;2022-12-07T04:16:30;98635.53;;;9.89;100.00
9740;BME280;4909;42.680;26.324;2022-12-07T04:18:58;98633.78;;;9.88;100.00
9740;BME280;4909;42.680;26.324;2022-12-07T04:21:25;98634.06;;;10.02;100.00
9740;BME280;4909;42.680;26.324;2022-12-07T04:23:52;98626.97;;;10.03;100.00
9740;BME280;4909;42.680;26.324;2022-12-07T04:26:18;98607.66;;;10.01;100.00
9740;BME280;4909;42.680;26.324;2022-12-07T04:28:45;98639.78;;;10.14;100.00
9740;BME280;4909;42.680;26.324;2022-12-07T04:31:12;98635.69;;;10.07;100.00
9740;BME280;4909;42.680;26.324;2022-12-07T04:33:39;98618.09;;;10.04;100.00
9740;BME280;4909;42.680;26.324;2022-12-07T04:36:07;98634.75;;;10.08;100.00
9740;BME280;4909;42.680;26.324;2022-12-07T04:38:34;98634.16;;;10.01;100.00
9740;BME280;4909;42.680;26.324;2022-12-07T04:41:04;98636.53;;;10.07;100.00
9740;BME280;4909;42.680;26.324;2022-12-07T04:43:31;98633.72;;;10.12;100.00
9740;BME280;4909;42.680;26.324;2022-12-07T04:45:58;98635.34;;;10.16;100.00
9740;BME280;4909;42.680;26.324;2022-12-07T04:48:25;98634.31;;;10.18;100.00
9740;BME280;4909;42.680;26.324;2022-12-07T04:50:52;98623.16;;;10.10;100.00
9740;BME280;4909;42.680;26.324;2022-12-07T04:53:20;98640.03;;;10.29;100.00
9740;BME280;4909;42.680;26.324;2022-12-07T04:55:47;98630.56;;;10.24;100.00
9740;BME280;4909;42.680;26.324;2022-12-07T04:58:14;98637.59;;;10.25;100.00
9740;BME280;4909;42.680;26.324;2022-12-07T05:00:40;98632.38;;;10.22;100.00
9740;BME280;4909;42.680;26.324;2022-12-07T05:03:07;98634.53;;;10.12;100.00
9740;BME280;4909;42.680;26.324;2022-12-07T05:05:34;98636.78;;;10.23;100.00
9740;BME280;4909;42.680;26.324;2022-12-07T05:08:01;98639.56;;;10.20;100.00
9740;BME280;4909;42.680;26.324;2022-12-07T05:10:29;98640.50;;;10.19;100.00
9740;BME280;4909;42.680;26.324;2022-12-07T05:12:56;98643.16;;;10.19;100.00
9740;BME280;4909;42.680;26.324;2022-12-07T05:15:22;98634.53;;;10.12;100.00
9740;BME280;4909;42.680;26.324;2022-12-07T05:17:49;98635.00;;;10.23;100.00
9740;BME280;4909;42.680;26.324;2022-12-07T05:20:17;98645.16;;;9.92;100.00
9740;BME280;4909;42.680;26.324;2022-12-07T05:22:44;98636.63;;;10.06;100.00
9740;BME280;4909;42.680;26.324;2022-12-07T05:25:11;98639.97;;;9.89;100.00
9740;BME280;4909;42.680;26.324;2022-12-07T05:27:39;98638.84;;;9.94;100.00
9740;BME280;4909;42.680;26.324;2022-12-07T05:30:07;98638.03;;;9.92;100.00
9740;BME280;4909;42.680;26.324;2022-12-07T05:32:34;98641.44;;;9.96;100.00
9740;BME280;4909;42.680;26.324;2022-12-07T05:35:00;98645.34;;;10.08;100.00
9740;BME280;4909;42.680;26.324;2022-12-07T05:37:27;98633.06;;;9.85;100.00
9740;BME280;4909;42.680;26.324;2022-12-07T05:39:54;98636.44;;;9.88;100.00
9740;BME280;4909;42.680;26.324;2022-12-07T05:42:21;98642.50;;;9.92;100.00
9740;BME280;4909;42.680;26.324;2022-12-07T05:44:49;98642.56;;;9.90;100.00
9740;BME280;4909;42.680;26.324;2022-12-07T05:47:16;98644.88;;;9.98;100.00
9740;BME280;4909;42.680;26.324;2022-12-07T05:49:42;98640.56;;;9.95;100.00
9740;BME280;4909;42.680;26.324;2022-12-07T05:52:09;98641.06;;;9.83;100.00
9740;BME280;4909;42.680;26.324;2022-12-07T05:54:36;98653.94;;;9.92;100.00
9740;BME280;4909;42.680;26.324;2022-12-07T05:57:03;98644.34;;;9.90;100.00
9740;BME280;4909;42.680;26.324;2022-12-07T05:59:30;98649.16;;;9.80;100.00
9740;BME280;4909;42.680;26.324;2022-12-07T06:01:58;98648.97;;;9.85;100.00
9740;BME280;4909;42.680;26.324;2022-12-07T06:04:27;98660.78;;;9.98;100.00
9740;BME280;4909;42.680;26.324;2022-12-07T06:06:54;98656.09;;;9.83;100.00
9740;BME280;4909;42.680;26.324;2022-12-07T06:09:24;98653.31;;;9.87;100.00
9740;BME280;4909;42.680;26.324;2022-12-07T06:11:51;98645.34;;;9.87;100.00
9740;BME280;4909;42.680;26.324;2022-12-07T06:14:36;98664.50;;;9.94;100.00
9740;BME280;4909;42.680;26.324;2022-12-07T06:17:05;98657.00;;;10.03;100.00
9740;BME280;4909;42.680;26.324;2022-12-07T06:19:32;98622.72;;;9.79;100.00
9740;BME280;4909;42.680;26.324;2022-12-07T06:21:59;98658.81;;;10.03;100.00
9740;BME280;4909;42.680;26.324;2022-12-07T06:24:25;98663.38;;;9.99;100.00
9740;BME280;4909;42.680;26.324;2022-12-07T06:26:52;98643.22;;;9.95;100.00
9740;BME280;4909;42.680;26.324;2022-12-07T06:29:19;98666.31;;;10.14;100.00
9740;BME280;4909;42.680;26.324;2022-12-07T06:31:47;98666.66;;;10.06;100.00
9740;BME280;4909;42.680;26.324;2022-12-07T06:34:17;98673.59;;;10.09;100.00
9740;BME280;4909;42.680;26.324;2022-12-07T06:36:45;98667.56;;;10.05;100.00
9740;BME280;4909;42.680;26.324;2022-12-07T06:39:17;98667.06;;;10.17;100.00
9740;BME280;4909;42.680;26.324;2022-12-07T06:41:44;98665.94;;;10.23;100.00
9740;BME280;4909;42.680;26.324;2022-12-07T06:44:11;98662.19;;;10.28;100.00
9740;BME280;4909;42.680;26.324;2022-12-07T06:46:37;98662.84;;;10.33;100.00
9740;BME280;4909;42.680;26.324;2022-12-07T06:49:05;98674.72;;;10.45;100.00
9740;BME280;4909;42.680;26.324;2022-12-07T06:51:34;98670.41;;;10.42;100.00
9740;BME280;4909;42.680;26.324;2022-12-07T06:54:02;98673.41;;;10.55;100.00
9740;BME280;4909;42.680;26.324;2022-12-07T06:56:29;98673.97;;;10.62;100.00
9740;BME280;4909;42.680;26.324;2022-12-07T06:58:55;98669.81;;;10.56;100.00
9740;BME280;4909;42.680;26.324;2022-12-07T07:01:22;98670.00;;;10.72;100.00
9740;BME280;4909;42.680;26.324;2022-12-07T07:03:49;98670.06;;;10.70;100.00
9740;BME280;4909;42.680;26.324;2022-12-07T07:06:16;98664.03;;;10.67;100.00
9740;BME280;4909;42.680;26.324;2022-12-07T07:08:44;98657.06;;;10.64;100.00
9740;BME280;4909;42.680;26.324;2022-12-07T07:11:11;98672.78;;;10.89;100.00
9740;BME280;4909;42.680;26.324;2022-12-07T07:13:38;98668.72;;;10.80;100.00
9740;BME280;4909;42.680;26.324;2022-12-07T07:16:06;98674.81;;;10.82;100.00
9740;BME280;4909;42.680;26.324;2022-12-07T07:18:33;98676.69;;;10.80;100.00
9740;BME280;4909;42.680;26.324;2022-12-07T07:21:00;98671.69;;;10.93;100.00
9740;BME280;4909;42.680;26.324;2022-12-07T07:23:26;98676.91;;;10.95;100.00
9740;BME280;4909;42.680;26.324;2022-12-07T07:25:55;98673.75;;;10.86;100.00
9740;BME280;4909;42.680;26.324;2022-12-07T07:28:22;98672.88;;;10.86;100.00
9740;BME280;4909;42.680;26.324;2022-12-07T07:30:49;98666.66;;;10.87;100.00
9740;BME280;4909;42.680;26.324;2022-12-07T07:33:15;98672.59;;;10.73;100.00
9740;BME280;4909;42.680;26.324;2022-12-07T07:35:42;98664.97;;;10.84;100.00
9740;BME280;4909;42.680;26.324;2022-12-07T07:38:09;98672.41;;;10.97;100.00
9740;BME280;4909;42.680;26.324;2022-12-07T07:40:36;98665.09;;;11.02;100.00
9740;BME280;4909;42.680;26.324;2022-12-07T07:43:04;98675.47;;;11.26;99.05
9740;BME280;4909;42.680;26.324;2022-12-07T07:45:31;98683.97;;;11.33;98.34
9740;BME280;4909;42.680;26.324;2022-12-07T07:47:58;98664.22;;;11.39;97.29
9740;BME280;4909;42.680;26.324;2022-12-07T07:50:25;98678.09;;;11.64;96.69
9740;BME280;4909;42.680;26.324;2022-12-07T07:52:52;98685.69;;;11.71;95.31
9740;BME280;4909;42.680;26.324;2022-12-07T07:55:19;98674.56;;;11.63;95.49
9740;BME280;4909;42.680;26.324;2022-12-07T07:57:45;98672.72;;;11.65;95.89
9740;BME280;4909;42.680;26.324;2022-12-07T08:00:15;98675.44;;;11.64;95.31
9740;BME280;4909;42.680;26.324;2022-12-07T08:02:43;98674.34;;;11.87;92.89
9740;BME280;4909;42.680;26.324;2022-12-07T08:05:12;98658.72;;;11.81;92.39
9740;BME280;4909;42.680;26.324;2022-12-07T08:07:39;98670.00;;;12.03;92.21
9740;BME280;4909;42.680;26.324;2022-12-07T08:10:09;98676.75;;;12.10;91.55
9740;BME280;4909;42.680;26.324;2022-12-07T08:12:37;98676.91;;;12.24;90.92
9740;BME280;4909;42.680;26.324;2022-12-07T08:15:27;98666.78;;;12.31;89.60
9740;BME280;4909;42.680;26.324;2022-12-07T08:17:54;98691.00;;;12.43;88.53
9740;BME280;4909;42.680;26.324;2022-12-07T08:20:21;98694.13;;;12.51;86.09
9740;BME280;4909;42.680;26.324;2022-12-07T08:22:48;98685.50;;;12.63;85.22
9740;BME280;4909;42.680;26.324;2022-12-07T08:25:15;98682.13;;;12.60;85.56
9740;BME280;4909;42.680;26.324;2022-12-07T08:27:42;98697.47;;;12.55;85.49
9740;BME280;4909;42.680;26.324;2022-12-07T08:30:09;98689.34;;;12.58;84.08
9740;BME280;4909;42.680;26.324;2022-12-07T08:32:38;98675.97;;;12.42;85.94
9740;BME280;4909;42.680;26.324;2022-12-07T08:35:05;98682.84;;;12.46;86.22
9740;BME280;4909;42.680;26.324;2022-12-07T08:37:32;98682.84;;;12.46;86.17
9740;BME280;4909;42.680;26.324;2022-12-07T08:39:59;98673.53;;;12.72;86.91
9740;BME280;4909;42.680;26.324;2022-12-07T08:42:26;98687.59;;;12.91;86.33
9740;BME280;4909;42.680;26.324;2022-12-07T08:44:55;98680.53;;;12.90;85.98
9740;BME280;4909;42.680;26.324;2022-12-07T08:47:23;98680.53;;;12.73;86.00
9740;BME280;4909;42.680;26.324;2022-12-07T08:49:52;98663.59;;;12.41;88.56
9740;BME280;4909;42.680;26.324;2022-12-07T08:52:19;98673.69;;;12.35;89.30
9740;BME280;4909;42.680;26.324;2022-12-07T08:54:46;98664.53;;;12.23;90.59
9740;BME280;4909;42.680;26.324;2022-12-07T08:57:13;98670.50;;;12.28;90.67
9740;BME280;4909;42.680;26.324;2022-12-07T08:59:40;98668.75;;;12.44;92.09
9740;BME280;4909;42.680;26.324;2022-12-07T09:02:07;98679.81;;;12.37;91.86
9740;BME280;4909;42.680;26.324;2022-12-07T09:04:34;98674.47;;;12.54;91.20
9740;BME280;4909;42.680;26.324;2022-12-07T09:07:02;98660.25;;;12.38;92.01
9740;BME280;4909;42.680;26.324;2022-12-07T09:09:29;98659.66;;;12.66;91.70
9740;BME280;4909;42.680;26.324;2022-12-07T09:11:56;98654.25;;;13.00;91.04
9740;BME280;4909;42.680;26.324;2022-12-07T09:14:23;98651.06;;;13.89;88.67
9740;BME280;4909;42.680;26.324;2022-12-07T09:16:50;98648.69;;;14.88;83.46
9740;BME280;4909;42.680;26.324;2022-12-07T09:19:16;98655.75;;;15.03;80.06
9740;BME280;4909;42.680;26.324;2022-12-07T09:21:43;98646.09;;;15.43;78.10
9740;BME280;4909;42.680;26.324;2022-12-07T09:24:12;98645.72;;;15.07;78.26
9740;BME280;4909;42.680;26.324;2022-12-07T09:26:39;98646.38;;;14.96;79.01
9740;BME280;4909;42.680;26.324;2022-12-07T09:29:06;98630.63;;;14.92;78.48
9740;BME280;4909;42.680;26.324;2022-12-07T09:31:35;98642.16;;;15.35;76.56
9740;BME280;4909;42.680;26.324;2022-12-07T09:34:02;98647.03;;;15.42;75.54
9740;BME280;4909;42.680;26.324;2022-12-07T09:36:30;98644.28;;;15.44;74.55
9740;BME280;4909;42.680;26.324;2022-12-07T09:38:57;98634.00;;;15.09;75.49
9740;BME280;4909;42.680;26.324;2022-12-07T09:41:26;98630.06;;;14.72;77.07
9740;BME280;4909;42.680;26.324;2022-12-07T09:43:58;98634.75;;;14.83;76.94
9740;BME280;4909;42.680;26.324;2022-12-07T09:46:27;98627.19;;;14.47;77.27
9740;BME280;4909;42.680;26.324;2022-12-07T09:48:55;98613.59;;;14.36;78.75
9740;BME280;4909;42.680;26.324;2022-12-07T09:51:22;98610.59;;;14.56;77.85
9740;BME280;4909;42.680;26.324;2022-12-07T09:53:51;98600.78;;;14.71;77.23
9740;BME280;4909;42.680;26.324;2022-12-07T09:56:19;98608.09;;;14.53;78.42
9740;BME280;4909;42.680;26.324;2022-12-07T09:58:48;98601.88;;;14.53;77.80
9740;BME280;4909;42.680;26.324;2022-12-07T10:01:17;98599.91;;;14.26;80.27
9740;BME280;4909;42.680;26.324;2022-12-07T10:03:49;98588.28;;;14.27;79.31
9740;BME280;4909;42.680;26.324;2022-12-07T10:06:16;98589.38;;;14.39;80.19
9740;BME280;4909;42.680;26.324;2022-12-07T10:08:43;98597.13;;;14.72;79.20
9740;BME280;4909;42.680;26.324;2022-12-07T10:11:10;98591.63;;;14.75;77.14
9740;BME280;4909;42.680;26.324;2022-12-07T10:13:39;98595.22;;;14.46;78.03
9740;BME280;4909;42.680;26.324;2022-12-07T10:16:30;98596.47;;;14.24;79.22
9740;BME280;4909;42.680;26.324;2022-12-07T10:19:17;98589.78;;;13.87;80.53
9740;BME280;4909;42.680;26.324;2022-12-07T10:21:59;98589.97;;;13.84;80.56
9740;BME280;4909;42.680;26.324;2022-12-07T10:24:26;98580.78;;;14.04;81.37
9740;BME280;4909;42.680;26.324;2022-12-07T10:26:55;98575.31;;;14.21;81.10
9740;BME280;4909;42.680;26.324;2022-12-07T10:29:24;98577.56;;;14.43;79.50
9740;BME280;4909;42.680;26.324;2022-12-07T10:31:57;98577.66;;;14.42;79.15
9740;BME280;4909;42.680;26.324;2022-12-07T10:34:26;98574.16;;;14.25;77.08
9740;BME280;4909;42.680;26.324;2022-12-07T10:37:11;98570.00;;;14.35;78.27
9740;BME280;4909;42.680;26.324;2022-12-07T10:39:41;98573.59;;;14.34;79.61
9740;BME280;4909;42.680;26.324;2022-12-07T10:42:16;98584.44;;;13.87;78.31
9740;BME280;4909;42.680;26.324;2022-12-07T10:44:44;98574.53;;;13.44;80.00
9740;BME280;4909;42.680;26.324;2022-12-07T10:47:22;98555.72;;;13.77;80.27
9740;BME280;4909;42.680;26.324;2022-12-07T10:50:06;98567.97;;;13.95;78.90
9740;BME280;4909;42.680;26.324;2022-12-07T10:52:47;98564.28;;;13.98;79.48
9740;BME280;4909;42.680;26.324;2022-12-07T10:55:22;98564.59;;;14.07;79.11
9740;BME280;4909;42.680;26.324;2022-12-07T10:58:00;98564.97;;;14.01;78.67
9740;BME280;4909;42.680;26.324;2022-12-07T11:00:37;98562.69;;;14.09;78.22
9740;BME280;4909;42.680;26.324;2022-12-07T11:03:30;98561.09;;;13.91;79.33
9740;BME280;4909;42.680;26.324;2022-12-07T11:06:10;98557.25;;;13.81;79.01
9740;BME280;4909;42.680;26.324;2022-12-07T11:08:54;98558.44;;;13.91;78.72
9740;BME280;4909;42.680;26.324;2022-12-07T11:11:30;98554.56;;;13.97;78.46
9740;BME280;4909;42.680;26.324;2022-12-07T11:14:05;98517.22;;;13.51;79.72
9740;BME280;4909;42.680;26.324;2022-12-07T11:16:50;98545.38;;;13.86;79.59
9740;BME280;4909;42.680;26.324;2022-12-07T11:19:33;98545.69;;;13.96;79.89
9740;BME280;4909;42.680;26.324;2022-12-07T11:22:04;98539.53;;;13.80;80.08
9740;BME280;4909;42.680;26.324;2022-12-07T11:24:40;98529.75;;;13.51;81.49
9740;BME280;4909;42.680;26.324;2022-12-07T11:27:18;98526.97;;;13.52;81.21
9740;BME280;4909;42.680;26.324;2022-12-07T11:30:11;98531.09;;;13.42;81.42
9740;BME280;4909;42.680;26.324;2022-12-07T11:33:08;98513.97;;;13.46;80.21
9740;BME280;4909;42.680;26.324;2022-12-07T11:35:46;98531.22;;;13.70;79.90
9740;BME280;4909;42.680;26.324;2022-12-07T11:38:17;98533.41;;;13.64;79.37
9740;BME280;4909;42.680;26.324;2022-12-07T11:40:46;98482.25;;;13.41;80.70
9740;BME280;4909;42.680;26.324;2022-12-07T11:43:20;98528.28;;;13.75;79.76
9740;BME280;4909;42.680;26.324;2022-12-07T11:45:54;98521.25;;;13.74;80.44
9740;BME280;4909;42.680;26.324;2022-12-07T11:48:30;98518.97;;;13.82;80.02
9740;BME280;4909;42.680;26.324;2022-12-07T11:51:01;98510.84;;;13.69;80.26
9740;BME280;4909;42.680;26.324;2022-12-07T11:53:33;98520.75;;;13.67;81.41
9740;BME280;4909;42.680;26.324;2022-12-07T11:56:06;98520.22;;;13.61;81.35
9740;BME280;4909;42.680;26.324;2022-12-07T11:58:48;98512.16;;;13.46;81.72
9740;BME280;4909;42.680;26.324;2022-12-07T12:01:28;98502.47;;;13.45;82.43
9740;BME280;4909;42.680;26.324;2022-12-07T12:04:00;98502.97;;;13.52;82.54
9740;BME280;4909;42.680;26.324;2022-12-07T12:06:30;98511.06;;;13.80;81.75
9740;BME280;4909;42.680;26.324;2022-12-07T12:09:03;98507.75;;;13.91;81.41
9740;BME280;4909;42.680;26.324;2022-12-07T12:11:44;98486.97;;;13.82;81.81
9740;BME280;4909;42.680;26.324;2022-12-07T12:14:30;98493.13;;;13.68;82.04
9740;BME280;4909;42.680;26.324;2022-12-07T12:20:02;98493.47;;;13.62;83.27
9740;BME280;4909;42.680;26.324;2022-12-07T12:22:36;98487.78;;;13.68;81.61
9740;BME280;4909;42.680;26.324;2022-12-07T12:25:05;98451.31;;;13.39;81.87
9740;BME280;4909;42.680;26.324;2022-12-07T12:27:34;98488.97;;;13.48;82.58
9740;BME280;4909;42.680;26.324;2022-12-07T12:30:06;98481.63;;;13.52;82.20
9740;BME280;4909;42.680;26.324;2022-12-07T12:32:38;98477.56;;;13.61;81.21
9740;BME280;4909;42.680;26.324;2022-12-07T12:35:27;98476.19;;;13.24;81.76
9740;BME280;4909;42.680;26.324;2022-12-07T12:38:33;98460.53;;;13.33;82.16
9740;BME280;4909;42.680;26.324;2022-12-07T12:41:52;98472.59;;;13.55;81.21
9740;BME280;4909;42.680;26.324;2022-12-07T12:50:31;98468.47;;;12.72;84.89
9740;BME280;4909;42.680;26.324;2022-12-07T12:53:14;98473.22;;;12.83;84.98
9740;BME280;4909;42.680;26.324;2022-12-07T13:02:15;98462.28;;;12.72;84.14
9740;BME280;4909;42.680;26.324;2022-12-07T13:04:52;98466.91;;;12.84;83.85
9740;BME280;4909;42.680;26.324;2022-12-07T13:07:48;98464.69;;;12.92;83.11
9740;BME280;4909;42.680;26.324;2022-12-07T13:10:22;98463.31;;;12.85;83.98
9740;BME280;4909;42.680;26.324;2022-12-07T13:12:57;98448.38;;;12.82;84.05
9740;BME280;4909;42.680;26.324;2022-12-07T13:15:39;98467.44;;;12.90;84.09
9740;BME280;4909;42.680;26.324;2022-12-07T13:18:24;98463.31;;;12.85;84.04
9740;BME280;4909;42.680;26.324;2022-12-07T13:20:53;98463.66;;;12.94;84.44
9740;BME280;4909;42.680;26.324;2022-12-07T13:23:24;98470.25;;;13.03;83.84
9740;BME280;4909;42.680;26.324;2022-12-07T13:25:55;98469.38;;;13.02;84.40
9740;BME280;4909;42.680;26.324;2022-12-07T13:28:33;98468.28;;;13.06;83.79
9740;BME280;4909;42.680;26.324;2022-12-07T13:31:14;98471.09;;;13.03;83.56
9740;BME280;4909;42.680;26.324;2022-12-07T13:33:45;98461.25;;;12.90;84.55
9740;BME280;4909;42.680;26.324;2022-12-07T13:36:18;98466.16;;;12.82;86.31
9740;BME280;4909;42.680;26.324;2022-12-07T13:38:54;98473.09;;;12.84;85.64
9740;BME280;4909;42.680;26.324;2022-12-07T13:41:21;98461.84;;;12.63;85.81
9740;BME280;4909;42.680;26.324;2022-12-07T13:43:51;98431.25;;;12.24;87.33